METAR Data
IDs: Format: Raw Decoded Include TAF

Data at: 1954 UTC 17 Nov 2019

KGPH 171935Z AUTO 34010G15KT 10SM BKN023 BKN030 OVC040 10/03 A2997 RMK AO2
KGPH 171915Z AUTO 34012KT 10SM BKN019 OVC040 10/04 A2997 RMK AO2
KGPH 171855Z AUTO 33009G14KT 10SM OVC017 08/04 A2998 RMK AO2
KGPH 171835Z AUTO 33008G16KT 10SM OVC017 08/04 A2999 RMK AO2
KGPH 171815Z AUTO 33010G16KT 10SM OVC017 08/04 A2999 RMK AO2
KGPH 171755Z AUTO 32010G15KT 10SM OVC019 08/04 A2999 RMK AO2
KGPH 171735Z AUTO 32012G20KT 10SM BKN019 BKN031 BKN100 09/04 A2999 RMK AO2
KGPH 171715Z AUTO 33010G15KT 10SM SCT019 BKN090 08/03 A2999 RMK AO2
KGPH 171655Z AUTO 33010KT 10SM SCT020 SCT075 OVC090 08/03 A2999 RMK AO2
KGPH 171635Z AUTO 31006KT 10SM SCT020 SCT075 08/03 A2999 RMK AO2
KGPH 171615Z AUTO 31009KT 10SM CLR 08/02 A2999 RMK AO2
KGPH 171555Z AUTO 32006KT 10SM SCT090 08/02 A2998 RMK AO2
KGPH 171535Z AUTO 31006KT 10SM OVC090 08/02 A2998 RMK AO2
KGPH 171515Z AUTO 30008KT 10SM SCT100 08/01 A2998 RMK AO2
KGPH 171455Z AUTO 29006KT 10SM SCT100 BKN120 08/00 A2997 RMK AO2
KGPH 171435Z AUTO 28003KT 10SM BKN110 08/00 A2997 RMK AO2
KGPH 171415Z AUTO 00000KT 10SM BKN120 08/00 A2997 RMK AO2
KGPH 171355Z AUTO 00000KT 10SM OVC110 08/00 A2997 RMK AO2
KGPH 171335Z AUTO 24005KT 10SM -DZ SCT060 BKN085 OVC120 08/00 A2996 RMK AO2
KGPH 171315Z AUTO 00000KT 10SM BKN085 OVC110 06/00 A2996 RMK AO2
KGPH 171255Z AUTO 00000KT 10SM OVC100 05/00 A2997 RMK AO2
KGPH 171235Z AUTO 00000KT 10SM BKN100 06/M01 A2997 RMK AO2
KGPH 171215Z AUTO 00000KT 10SM SCT120 06/M01 A2997 RMK AO2
KGPH 171155Z AUTO 00000KT 10SM CLR 06/M01 A2997 RMK AO2
KGPH 171135Z AUTO 00000KT 10SM SCT120 06/M01 A2998 RMK AO2
KGPH 171115Z AUTO 15004KT 10SM BKN120 06/M01 A2998 RMK AO2
KGPH 171055Z AUTO 00000KT 10SM SCT120 06/M01 A2999 RMK AO2
KGPH 171035Z AUTO 00000KT 10SM CLR 06/M01 A2999 RMK AO2
KGPH 171015Z AUTO 00000KT 10SM 06/M01 A2999 RMK AO2
KGPH 170955Z AUTO 00000KT 10SM SCT120 06/M01 A3000 RMK AO2
KGPH 170935Z AUTO 00000KT 10SM SCT120 06/M02 A3000 RMK AO2
KGPH 170915Z AUTO 00000KT 10SM CLR 06/M02 A3001 RMK AO2
KGPH 170855Z AUTO 00000KT 10SM CLR 06/M02 A3001 RMK AO2
KGPH 170835Z AUTO 00000KT 10SM CLR 06/M02 A3002 RMK AO2
KGPH 170815Z AUTO 13003KT 10SM CLR 06/M02 A3002 RMK AO2
KGPH 170755Z AUTO 00000KT 10SM CLR 06/M02 A3002 RMK AO2
KGPH 170735Z AUTO 00000KT 10SM CLR 06/M02 A3003 RMK AO2
KGPH 170715Z AUTO 00000KT 10SM CLR 06/M02 A3005 RMK AO2
KGPH 170655Z AUTO 00000KT 10SM CLR 06/M02 A3005 RMK AO2
KGPH 170635Z AUTO 00000KT 10SM CLR 06/M02 A3006 RMK AO2
KGPH 170615Z AUTO 00000KT 10SM CLR 06/M02 A3006 RMK AO2
KGPH 170555Z AUTO 14003KT 10SM CLR 06/M02 A3006 RMK AO2
KGPH 170535Z AUTO 00000KT 10SM CLR 05/M02 A3007 RMK AO2
KGPH 170515Z AUTO 00000KT 10SM CLR 06/M02 A3007 RMK AO2
KGPH 170455Z AUTO 00000KT 10SM CLR 06/M02 A3007 RMK AO2
KGPH 170435Z AUTO 00000KT 10SM CLR 06/M02 A3007 RMK AO2
KGPH 170415Z AUTO 00000KT 10SM CLR 07/M02 A3007 RMK AO2
KGPH 170355Z AUTO 00000KT 10SM CLR 07/M03 A3007 RMK AO2
KGPH 170335Z AUTO 00000KT 10SM CLR 08/M03 A3007 RMK AO2
KGPH 170315Z AUTO 13003KT 10SM CLR 08/M03 A3006 RMK AO2
KGPH 170255Z AUTO 14004KT 10SM CLR 08/M03 A3005 RMK AO2
KGPH 170235Z AUTO 13003KT 10SM CLR 08/M03 A3005 RMK AO2
KGPH 170215Z AUTO 13004KT 10SM CLR 09/M03 A3005 RMK AO2
KGPH 170155Z AUTO 15005KT 10SM CLR 09/M03 A3005 RMK AO2
KGPH 170135Z AUTO 00000KT 10SM CLR 09/M03 A3005 RMK AO2
KGPH 170115Z AUTO 14004KT 10SM CLR 09/M03 A3005 RMK AO2
KGPH 170055Z AUTO 15004KT 10SM CLR 10/M02 A3005 RMK AO2
KGPH 170035Z AUTO 14004KT 10SM CLR 10/M03 A3005 RMK AO2
KGPH 170015Z AUTO 15005KT 10SM CLR 10/M02 A3006 RMK AO2
KGPH 162355Z AUTO 14004KT 10SM CLR 11/M02 A3006 RMK AO2
KGPH 162335Z AUTO 15005KT 10SM CLR 11/M02 A3007 RMK AO2
KGPH 162315Z AUTO 00000KT 10SM CLR 12/M02 A3006 RMK AO2
KGPH 162255Z AUTO 14005KT 10SM CLR 12/M03 A3007 RMK AO2
KGPH 162235Z AUTO 15006KT 10SM CLR 13/M03 A3007 RMK AO2
KGPH 162215Z AUTO 15006KT 10SM CLR 13/M03 A3008 RMK AO2
KGPH 162155Z AUTO 16006KT 10SM CLR 13/M03 A3008 RMK AO2
KGPH 162135Z AUTO 14008G14KT 10SM CLR 13/M03 A3008 RMK AO2
KGPH 162115Z AUTO 14010KT 10SM CLR 13/M03 A3008 RMK AO2
KGPH 162055Z AUTO 14009KT 10SM CLR 13/M03 A3010 RMK AO2
KGPH 162035Z AUTO 18009G14KT 10SM CLR 13/M04 A3010 RMK AO2
KGPH 162015Z AUTO 13004KT 10SM CLR 13/M03 A3011 RMK AO2
KGPH 161955Z AUTO 13010KT 10SM CLR 13/M03 A3012 RMK AO2
KGPH 161935Z AUTO 14007KT 10SM CLR 12/M03 A3013 RMK AO2
KGPH 161915Z AUTO 00000KT 10SM CLR 12/M04 A3015 RMK AO2
KGPH 161855Z AUTO 00000KT 10SM CLR 11/M04 A3017 RMK AO2
KGPH 161835Z AUTO 14008KT 10SM CLR 10/M04 A3018 RMK AO2
KGPH 161815Z AUTO 00000KT 10SM CLR 09/M04 A3020 RMK AO2
KGPH 161755Z AUTO 00000KT 10SM CLR 09/M05 A3021 RMK AO2
KGPH 161735Z AUTO 16007KT 10SM CLR 08/M05 A3022 RMK AO2
KGPH 161715Z AUTO 12003KT 10SM CLR 07/M04 A3023 RMK AO2
KGPH 161655Z AUTO 00000KT 10SM CLR 06/M04 A3024 RMK AO2
KGPH 161635Z AUTO 00000KT 10SM CLR 05/M04 A3025 RMK AO2
KGPH 161615Z AUTO 00000KT 10SM CLR 04/M05 A3026 RMK AO2
KGPH 161555Z AUTO 00000KT 10SM CLR 03/M05 A3026 RMK AO2
KGPH 161535Z AUTO 00000KT 10SM CLR 03/M05 A3027 RMK AO2
KGPH 161515Z AUTO 00000KT 10SM CLR 02/M05 A3027 RMK AO2
KGPH 161455Z AUTO 00000KT 10SM CLR 01/M05 A3027 RMK AO2
KGPH 161435Z AUTO 00000KT 10SM CLR 01/M06 A3027 RMK AO2
KGPH 161415Z AUTO 00000KT 10SM CLR 00/M06 A3027 RMK AO2
KGPH 161355Z AUTO 00000KT 10SM CLR 00/M06 A3027 RMK AO2
KGPH 161335Z AUTO 00000KT 10SM CLR 00/M06 A3027 RMK AO2
KGPH 161315Z AUTO 00000KT 10SM CLR 00/M06 A3027 RMK AO2
KGPH 161255Z AUTO 00000KT 10SM CLR 00/M06 A3027 RMK AO2
KGPH 161235Z AUTO 00000KT 10SM CLR 00/M06 A3027 RMK AO2
KGPH 161215Z AUTO 00000KT 10SM CLR 00/M06 A3027 RMK AO2
KGPH 161155Z AUTO 00000KT 10SM CLR 00/M06 A3027 RMK AO2
KGPH 161135Z AUTO 00000KT 10SM CLR 00/M07 A3027 RMK AO2
KGPH 161115Z AUTO 00000KT 10SM CLR 00/M06 A3027 RMK AO2
KGPH 161055Z AUTO 00000KT 10SM CLR 00/M06 A3027 RMK AO2
KGPH 161035Z AUTO 00000KT 10SM CLR 00/M06 A3027 RMK AO2
KGPH 161015Z AUTO 00000KT 10SM CLR 01/M07 A3027 RMK AO2
KGPH 160955Z AUTO 00000KT 10SM CLR 00/M06 A3028 RMK AO2
KGPH 160935Z AUTO 00000KT 10SM CLR 00/M06 A3028 RMK AO2
KGPH 160915Z AUTO 00000KT 10SM CLR M01/M05 A3028 RMK AO2
KGPH 160855Z AUTO 00000KT 10SM CLR M02/M04 A3029 RMK AO2
KGPH 160835Z AUTO 00000KT 10SM CLR M02/M04 A3029 RMK AO2
KGPH 160815Z AUTO 00000KT 10SM CLR M02/M04 A3030 RMK AO2
KGPH 160755Z AUTO 00000KT 10SM CLR M02/M04 A3029 RMK AO2